GMFF/FEZ METAR and TAF weather

Enter ICAO airport designator
Station Type Date Time Source
GMFF METAR 2018/06/25 02:00 UTC NOAA

GMFF 250200Z 32002KT 0050 0050SE R27/0050V0075N R09/////N -DZ FG OVC003 18/18 Q1018 NOSIG


Station Type Date Time Source
GMFF Decoded METAR 2018/06/25 02:00 UTC NOAA

Fes-Sais, Morocco (GMFF) 33-56N 004-59W 579M
Jun 24, 2018 - 10:00 PM EDT / 2018.06.25 0200 UTC
Wind: from the NW (320 degrees) at 2 MPH (2 KT) (direction variable):0
Visibility: less than 1 mile:0
Sky conditions: overcast
Weather: light drizzle; fog
Temperature: 64 F (18 C)
Dew Point: 64 F (18 C)
Relative Humidity: 100%
Pressure (altimeter): 30.06 in. Hg (1018 hPa)
ob: GMFF 250200Z 32002KT 0050 0050SE R27/0050V0075N R09/////N -DZ FG OVC003 18/18 Q1018 NOSIG
cycle: 2

Station Type Date Time Source
GMFF TAF 2018/06/24 18:18 UTC NOAA

TAF TAF GMFF 241700Z 2418/2524 32010KT 9999 OVC013
BECMG 2422/2502 2000 BR OVC006
BECMG 2510/2514 9999 NSW SCT026


Example: see airport list